Time;durP1;ratioP1;P1;durP2;ratioP2;P2;SDS_P1;SDS_P2;PMS_P1;PMS_P2;Temp;Humidity;BMP_temperature;BMP_pressure;BME280_temperature;BME280_humidity;BME280_pressure;Samples;Min_cycle;Max_cycle;Signal;HPM_P1;HPM_P2
2021/06/08 00:00:15;;;;;;;18.23;15.47;;;;;;;;;;5172995;27;20504;-80
2021/06/08 00:02:42;;;;;;;16.87;15.13;;;;;;;;;;5172579;27;20457;-81
2021/06/08 00:05:10;;;;;;;17.47;15.70;;;;;;;;;;5171898;27;20508;-80
2021/06/08 00:07:39;;;;;;;20.53;15.80;;;;;;;;;;5173169;27;20487;-81
2021/06/08 00:10:07;;;;;;;21.13;16.00;;;;;;;;;;5171809;27;20480;-81
2021/06/08 00:12:34;;;;;;;17.80;15.97;;;;;;;;;;5172390;27;20991;-81
2021/06/08 00:15:01;;;;;;;18.50;16.50;;;;;;;;;;5172269;27;20544;-81
2021/06/08 00:17:29;;;;;;;27.80;18.90;;;;;;;;;;5173564;27;20806;-80
2021/06/08 00:19:56;;;;;;;19.53;17.53;;;;;;;;;;5173000;27;20456;-81
2021/06/08 00:22:23;;;;;;;20.73;17.30;;;;;;;;;;5172764;27;20471;-80
2021/06/08 00:24:52;;;;;;;20.47;16.83;;;;;;;;;;5173455;27;20534;-81
2021/06/08 00:27:19;;;;;;;22.60;16.07;;;;;;;;;;5173344;27;20972;-80
2021/06/08 00:29:46;;;;;;;21.60;15.33;;;;;;;;;;5173303;27;20865;-80
2021/06/08 00:32:13;;;;;;;21.40;17.40;;;;;;;;;;5173155;27;20498;-80
2021/06/08 00:34:40;;;;;;;22.90;17.30;;;;;;;;;;5173180;27;20542;-80
2021/06/08 00:37:07;;;;;;;20.20;16.77;;;;;;;;;;5170236;27;20451;-81
2021/06/08 00:39:35;;;;;;;20.93;16.00;;;;;;;;;;5173367;27;20468;-80
2021/06/08 00:42:03;;;;;;;22.70;17.57;;;;;;;;;;5172046;27;20449;-80
2021/06/08 00:44:31;;;;;;;20.63;16.90;;;;;;;;;;5172029;27;20508;-80
2021/06/08 00:46:58;;;;;;;20.57;17.57;;;;;;;;;;5172142;27;20503;-80
2021/06/08 00:49:25;;;;;;;27.10;17.90;;;;;;;;;;5171487;27;20846;-79
2021/06/08 00:51:53;;;;;;;23.70;17.50;;;;;;;;;;5171468;27;20448;-80
2021/06/08 00:54:20;;;;;;;21.87;18.43;;;;;;;;;;5171977;27;20456;-80
2021/06/08 00:56:47;;;;;;;20.03;17.93;;;;;;;;;;5170126;27;20453;-81
2021/06/08 00:59:16;;;;;;;20.37;16.43;;;;;;;;;;5172228;27;20464;-80
2021/06/08 01:01:43;;;;;;;20.80;18.70;;;;;;;;;;5170172;27;20521;-80
2021/06/08 01:04:11;;;;;;;21.80;18.80;;;;;;;;;;5170359;27;20445;-81
2021/06/08 01:06:40;;;;;;;25.77;17.80;;;;;;;;;;5169873;27;20697;-80
2021/06/08 01:09:07;;;;;;;21.20;17.63;;;;;;;;;;5167677;27;20881;-80
2021/06/08 01:11:35;;;;;;;18.50;16.60;;;;;;;;;;5168743;27;20505;-80
2021/06/08 01:14:02;;;;;;;19.50;17.40;;;;;;;;;;5168086;27;20469;-78
2021/06/08 01:16:31;;;;;;;19.13;16.27;;;;;;;;;;5165536;27;20480;-79
2021/06/08 01:18:59;;;;;;;19.70;16.97;;;;;;;;;;5167248;27;20476;-79
2021/06/08 01:21:28;;;;;;;20.30;18.27;;;;;;;;;;5167803;27;20867;-81
2021/06/08 01:23:55;;;;;;;24.90;17.87;;;;;;;;;;5166620;27;20792;-80
2021/06/08 01:26:24;;;;;;;22.70;18.00;;;;;;;;;;5169668;27;20468;-80
2021/06/08 01:28:52;;;;;;;22.10;17.27;;;;;;;;;;5171158;27;20480;-80
2021/06/08 01:31:20;;;;;;;22.00;16.40;;;;;;;;;;5171580;27;20472;-80
2021/06/08 01:33:47;;;;;;;19.43;17.33;;;;;;;;;;5171492;27;20507;-80
2021/06/08 01:36:16;;;;;;;20.53;18.33;;;;;;;;;;5170286;27;20812;-80
2021/06/08 01:38:45;;;;;;;21.00;17.50;;;;;;;;;;5170208;27;20884;-81
2021/06/08 01:41:13;;;;;;;21.43;17.30;;;;;;;;;;5169957;27;20471;-80
2021/06/08 01:43:41;;;;;;;19.43;15.70;;;;;;;;;;5170592;27;20491;-81
2021/06/08 01:46:09;;;;;;;20.10;16.13;;;;;;;;;;5170002;27;20531;-81
2021/06/08 01:48:36;;;;;;;20.93;18.73;;;;;;;;;;5169608;27;20512;-81
2021/06/08 01:51:08;;;;;;;18.67;15.30;;;;;;;;;;5170932;27;20480;-79
2021/06/08 01:53:39;;;;;;;19.93;16.83;;;;;;;;;;5171991;27;20453;-80
2021/06/08 01:56:09;;;;;;;19.93;17.57;;;;;;;;;;5168407;27;20463;-80
2021/06/08 01:58:40;;;;;;;21.73;17.30;;;;;;;;;;5166811;27;20468;-78
2021/06/08 02:01:11;;;;;;;23.97;17.00;;;;;;;;;;5164294;27;20468;-80
2021/06/08 02:03:39;;;;;;;17.67;15.77;;;;;;;;;;5166842;27;20952;-79
2021/06/08 02:06:14;;;;;;;18.17;16.30;;;;;;;;;;5170569;27;20460;-81
2021/06/08 02:08:43;;;;;;;16.73;14.97;;;;;;;;;;5170396;27;20991;-81
2021/06/08 02:11:13;;;;;;;18.03;16.13;;;;;;;;;;5169513;27;20727;-81
2021/06/08 02:13:46;;;;;;;18.90;17.10;;;;;;;;;;5170428;27;20449;-80
2021/06/08 02:16:15;;;;;;;22.70;16.40;;;;;;;;;;5168256;27;20506;-80
2021/06/08 02:18:43;;;;;;;16.50;14.80;;;;;;;;;;5168984;27;20450;-80
2021/06/08 02:21:11;;;;;;;16.37;14.57;;;;;;;;;;5168446;27;20524;-81
2021/06/08 02:23:39;;;;;;;16.00;14.30;;;;;;;;;;5170464;27;20539;-81
2021/06/08 02:26:06;;;;;;;15.87;14.27;;;;;;;;;;5171556;27;20503;-78
2021/06/08 02:28:36;;;;;;;15.30;13.73;;;;;;;;;;5171208;27;20519;-81
2021/06/08 02:31:06;;;;;;;16.17;14.57;;;;;;;;;;5170219;27;20497;-81
2021/06/08 02:33:34;;;;;;;17.87;14.90;;;;;;;;;;5171207;27;20512;-81
2021/06/08 02:36:01;;;;;;;17.17;13.80;;;;;;;;;;5169504;27;20481;-81
2021/06/08 02:38:29;;;;;;;15.07;13.43;;;;;;;;;;5171494;27;20520;-81
2021/06/08 02:40:56;;;;;;;14.80;13.30;;;;;;;;;;5169804;27;20449;-81
2021/06/08 02:43:25;;;;;;;13.33;12.00;;;;;;;;;;5169806;27;20932;-80
2021/06/08 02:45:54;;;;;;;16.07;14.00;;;;;;;;;;5169773;27;20460;-81
2021/06/08 02:48:22;;;;;;;15.00;13.50;;;;;;;;;;5169436;27;20511;-81
2021/06/08 02:50:52;;;;;;;15.43;13.10;;;;;;;;;;5167513;27;20467;-81
2021/06/08 02:53:21;;;;;;;17.30;14.70;;;;;;;;;;5167584;27;20541;-80
2021/06/08 02:55:49;;;;;;;15.57;14.07;;;;;;;;;;5166847;27;20461;-81
2021/06/08 02:58:16;;;;;;;13.63;12.17;;;;;;;;;;5170345;27;20543;-81
2021/06/08 03:00:43;;;;;;;15.53;13.67;;;;;;;;;;5169915;27;20541;-81
2021/06/08 03:03:14;;;;;;;15.50;13.90;;;;;;;;;;5168649;27;20473;-81
2021/06/08 03:05:44;;;;;;;21.43;12.93;;;;;;;;;;5168157;27;20807;-81
2021/06/08 03:08:14;;;;;;;14.40;12.90;;;;;;;;;;5169432;27;20491;-81
2021/06/08 03:10:41;;;;;;;15.60;13.50;;;;;;;;;;5167392;27;20555;-81
2021/06/08 03:13:09;;;;;;;16.93;13.20;;;;;;;;;;5168870;27;20476;-79
2021/06/08 03:15:38;;;;;;;14.53;12.33;;;;;;;;;;5169747;27;20499;-81
2021/06/08 03:18:07;;;;;;;19.03;12.80;;;;;;;;;;5169454;27;20748;-79
2021/06/08 03:20:38;;;;;;;13.43;12.03;;;;;;;;;;5168882;27;20461;-80
2021/06/08 03:23:06;;;;;;;13.83;12.27;;;;;;;;;;5169760;27;20472;-81
2021/06/08 03:25:34;;;;;;;12.80;11.40;;;;;;;;;;5168824;27;20524;-81
2021/06/08 03:28:01;;;;;;;15.87;13.00;;;;;;;;;;5169619;27;20523;-81
2021/06/08 03:30:29;;;;;;;13.00;11.77;;;;;;;;;;5168191;27;20506;-81
2021/06/08 03:32:57;;;;;;;14.07;12.73;;;;;;;;;;5166817;27;20488;-79
2021/06/08 03:35:25;;;;;;;13.33;11.93;;;;;;;;;;5168545;27;20491;-80
2021/06/08 03:37:54;;;;;;;14.43;11.80;;;;;;;;;;5168615;27;20456;-81
2021/06/08 03:40:22;;;;;;;15.73;13.50;;;;;;;;;;5169957;27;20484;-80
2021/06/08 03:42:50;;;;;;;15.80;13.70;;;;;;;;;;5168378;27;20445;-80
2021/06/08 03:45:17;;;;;;;14.63;13.10;;;;;;;;;;5168745;27;20553;-80
2021/06/08 03:47:45;;;;;;;13.00;11.60;;;;;;;;;;5170257;27;20916;-79
2021/06/08 03:50:14;;;;;;;13.77;12.40;;;;;;;;;;5170784;27;20504;-80
2021/06/08 03:52:42;;;;;;;14.97;12.10;;;;;;;;;;5171225;27;20465;-79
2021/06/08 03:55:12;;;;;;;14.20;12.80;;;;;;;;;;5172204;27;20445;-80
2021/06/08 03:57:43;;;;;;;13.13;11.73;;;;;;;;;;5172683;27;20456;-80
2021/06/08 04:00:11;;;;;;;13.67;11.17;;;;;;;;;;5172846;27;20448;-80
2021/06/08 04:02:39;;;;;;;13.07;11.77;;;;;;;;;;5173018;27;20461;-80
2021/06/08 04:05:08;;;;;;;12.37;10.97;;;;;;;;;;5172433;27;20463;-78
2021/06/08 04:07:35;;;;;;;12.43;11.13;;;;;;;;;;5172690;27;20613;-80
2021/06/08 04:10:02;;;;;;;12.37;10.90;;;;;;;;;;5171538;27;20539;-80
2021/06/08 04:12:31;;;;;;;13.00;11.63;;;;;;;;;;5170390;27;20551;-80
2021/06/08 04:14:58;;;;;;;12.50;11.30;;;;;;;;;;5168151;27;20525;-78
2021/06/08 04:17:25;;;;;;;13.67;12.33;;;;;;;;;;5166541;27;20464;-79
2021/06/08 04:19:52;;;;;;;12.63;11.33;;;;;;;;;;5167260;27;20480;-79
2021/06/08 04:22:27;;;;;;;13.50;11.83;;;;;;;;;;5169374;27;20536;-80
2021/06/08 04:24:54;;;;;;;12.53;11.20;;;;;;;;;;5172356;27;20483;-79
2021/06/08 04:27:23;;;;;;;11.93;10.73;;;;;;;;;;5171898;27;20496;-80
2021/06/08 04:29:51;;;;;;;11.83;10.63;;;;;;;;;;5172183;27;20560;-79
2021/06/08 04:32:19;;;;;;;11.90;10.67;;;;;;;;;;5172433;27;20457;-78
2021/06/08 04:34:47;;;;;;;12.60;11.20;;;;;;;;;;5168966;27;20480;-79
2021/06/08 04:37:14;;;;;;;12.90;10.60;;;;;;;;;;5166175;27;20453;-81
2021/06/08 04:39:42;;;;;;;13.10;10.10;;;;;;;;;;5166352;27;20806;-79
2021/06/08 04:42:10;;;;;;;12.63;11.37;;;;;;;;;;5166348;27;20485;-79
2021/06/08 04:44:37;;;;;;;11.73;10.63;;;;;;;;;;5167013;27;20712;-79
2021/06/08 04:47:06;;;;;;;10.90;9.77;;;;;;;;;;5168372;27;20441;-80
2021/06/08 04:49:33;;;;;;;11.90;10.10;;;;;;;;;;5168486;27;20564;-80
2021/06/08 04:52:01;;;;;;;10.13;9.13;;;;;;;;;;5171701;27;20534;-79
2021/06/08 04:54:28;;;;;;;10.43;9.33;;;;;;;;;;5170131;27;20547;-80
2021/06/08 04:56:58;;;;;;;10.67;9.57;;;;;;;;;;5169318;27;20554;-80
2021/06/08 04:59:31;;;;;;;10.43;9.47;;;;;;;;;;5169549;27;20463;-80
2021/06/08 05:01:59;;;;;;;14.80;10.43;;;;;;;;;;5169782;27;20491;-81
2021/06/08 05:04:29;;;;;;;15.67;10.40;;;;;;;;;;5170193;27;20483;-80
2021/06/08 05:06:59;;;;;;;11.73;10.40;;;;;;;;;;5169447;27;20484;-80
2021/06/08 05:09:30;;;;;;;12.50;10.60;;;;;;;;;;5168690;27;20833;-81
2021/06/08 05:11:59;;;;;;;11.60;10.37;;;;;;;;;;5168015;27;20494;-80
2021/06/08 05:14:27;;;;;;;11.23;10.07;;;;;;;;;;5167486;27;20465;-80
2021/06/08 05:16:54;;;;;;;13.80;9.90;;;;;;;;;;5168278;27;20551;-81
2021/06/08 05:19:23;;;;;;;10.83;9.63;;;;;;;;;;5167999;27;20858;-80
2021/06/08 05:21:53;;;;;;;12.30;10.97;;;;;;;;;;5167698;27;20520;-81
2021/06/08 05:24:20;;;;;;;12.83;9.97;;;;;;;;;;5167751;27;20460;-79
2021/06/08 05:26:49;;;;;;;11.57;10.37;;;;;;;;;;5168079;27;20656;-81
2021/06/08 05:29:18;;;;;;;12.77;10.90;;;;;;;;;;5167591;27;20563;-80
2021/06/08 05:31:45;;;;;;;12.23;11.03;;;;;;;;;;5169734;27;20567;-79
2021/06/08 05:34:13;;;;;;;13.20;11.80;;;;;;;;;;5165624;27;20469;-79
2021/06/08 05:36:42;;;;;;;15.67;10.37;;;;;;;;;;5168335;27;20524;-79
2021/06/08 05:39:11;;;;;;;12.83;11.50;;;;;;;;;;5167791;27;20848;-80
2021/06/08 05:41:38;;;;;;;11.40;10.20;;;;;;;;;;5167272;27;20543;-80
2021/06/08 05:44:06;;;;;;;12.27;10.90;;;;;;;;;;5167574;27;21066;-79
2021/06/08 05:46:36;;;;;;;13.20;9.80;;;;;;;;;;5164388;27;20904;-79
2021/06/08 05:49:04;;;;;;;10.90;9.73;;;;;;;;;;5165379;27;20489;-80
2021/06/08 05:51:31;;;;;;;10.83;9.73;;;;;;;;;;5165431;27;20445;-80
2021/06/08 05:53:59;;;;;;;11.30;9.00;;;;;;;;;;5163820;27;20729;-81
2021/06/08 05:56:32;;;;;;;11.40;10.23;;;;;;;;;;5165843;27;20486;-80
2021/06/08 05:58:59;;;;;;;10.67;9.57;;;;;;;;;;5164884;27;20453;-80
2021/06/08 06:01:27;;;;;;;10.53;9.43;;;;;;;;;;5166699;27;20478;-80
2021/06/08 06:03:55;;;;;;;11.27;10.07;;;;;;;;;;5166853;27;20546;-80
2021/06/08 06:06:22;;;;;;;12.13;10.10;;;;;;;;;;5156089;27;20544;-80
2021/06/08 06:08:49;;;;;;;12.93;10.30;;;;;;;;;;5166903;27;20613;-80
2021/06/08 06:11:17;;;;;;;11.00;9.77;;;;;;;;;;5166338;27;20472;-80
2021/06/08 06:13:48;;;;;;;11.37;10.27;;;;;;;;;;5163737;27;20543;-80
2021/06/08 06:16:18;;;;;;;10.40;8.93;;;;;;;;;;5168217;27;20514;-82
2021/06/08 06:18:45;;;;;;;10.03;9.03;;;;;;;;;;5165348;27;20492;-80
2021/06/08 06:21:13;;;;;;;12.00;10.00;;;;;;;;;;5167475;27;20472;-80
2021/06/08 06:23:40;;;;;;;11.53;9.40;;;;;;;;;;5167219;27;20492;-79
2021/06/08 06:26:08;;;;;;;16.50;10.30;;;;;;;;;;5166643;27;20957;-80
2021/06/08 06:28:35;;;;;;;10.90;9.90;;;;;;;;;;5166526;27;20477;-81
2021/06/08 06:31:07;;;;;;;9.97;8.93;;;;;;;;;;5168768;27;20460;-80
2021/06/08 06:33:34;;;;;;;11.70;9.97;;;;;;;;;;5146920;27;20819;-78
2021/06/08 06:36:01;;;;;;;10.50;9.37;;;;;;;;;;5152238;27;20484;-78
2021/06/08 06:38:29;;;;;;;11.77;9.90;;;;;;;;;;5158483;27;20540;-79
2021/06/08 06:40:56;;;;;;;12.20;9.57;;;;;;;;;;5155421;27;20639;-80
2021/06/08 06:43:25;;;;;;;9.63;8.63;;;;;;;;;;5144728;27;20489;-78
2021/06/08 06:45:53;;;;;;;10.63;9.30;;;;;;;;;;5156936;27;20549;-81
2021/06/08 06:48:22;;;;;;;13.10;9.20;;;;;;;;;;5159069;27;20481;-79
2021/06/08 06:50:49;;;;;;;13.73;11.27;;;;;;;;;;5148709;27;20795;-78
2021/06/08 06:53:18;;;;;;;11.40;10.17;;;;;;;;;;5152764;27;20966;-78
2021/06/08 06:55:48;;;;;;;10.27;9.23;;;;;;;;;;5169732;27;20448;-78
2021/06/08 06:58:18;;;;;;;12.10;9.80;;;;;;;;;;5165688;27;20543;-78
2021/06/08 07:00:45;;;;;;;10.20;9.20;;;;;;;;;;5174487;27;20456;-79
2021/06/08 07:03:14;;;;;;;9.93;8.93;;;;;;;;;;5155007;27;20900;-80
2021/06/08 07:05:44;;;;;;;12.73;9.67;;;;;;;;;;5143960;27;20484;-78
2021/06/08 07:08:12;;;;;;;12.30;9.20;;;;;;;;;;5161648;27;21159;-81
2021/06/08 07:10:40;;;;;;;10.23;9.23;;;;;;;;;;5159076;27;20607;-77
2021/06/08 07:13:08;;;;;;;10.83;9.73;;;;;;;;;;5160981;27;20482;-79
2021/06/08 07:15:38;;;;;;;12.13;10.73;;;;;;;;;;5155726;27;20462;-78
2021/06/08 07:18:06;;;;;;;14.00;9.70;;;;;;;;;;5170991;27;20448;-79
2021/06/08 07:20:33;;;;;;;13.40;9.93;;;;;;;;;;5161445;27;20445;-79
2021/06/08 07:23:02;;;;;;;11.37;9.70;;;;;;;;;;5150044;27;20516;-78
2021/06/08 07:25:34;;;;;;;10.83;9.83;;;;;;;;;;5159595;27;20555;-78
2021/06/08 07:28:04;;;;;;;10.30;9.20;;;;;;;;;;5154372;27;20477;-79
2021/06/08 07:30:31;;;;;;;10.30;9.27;;;;;;;;;;5159328;27;21253;-80
2021/06/08 07:33:04;;;;;;;9.87;8.87;;;;;;;;;;5164470;27;20457;-80
2021/06/08 07:35:33;;;;;;;13.27;9.43;;;;;;;;;;5159265;27;20452;-78
2021/06/08 07:38:07;;;;;;;12.10;9.10;;;;;;;;;;5162692;27;20445;-80
2021/06/08 07:40:37;;;;;;;10.23;9.23;;;;;;;;;;5164847;27;20889;-79
2021/06/08 07:43:05;;;;;;;9.73;8.73;;;;;;;;;;5149324;27;20496;-79
2021/06/08 07:45:41;;;;;;;11.60;9.07;;;;;;;;;;5157813;27;20504;-79
2021/06/08 07:48:10;;;;;;;10.80;9.13;;;;;;;;;;5159552;27;20500;-79
2021/06/08 07:50:39;;;;;;;11.03;9.30;;;;;;;;;;5150237;27;20448;-79
2021/06/08 07:53:07;;;;;;;10.43;8.83;;;;;;;;;;5160793;27;20940;-81
2021/06/08 07:55:35;;;;;;;10.70;9.10;;;;;;;;;;5147607;27;20450;-79
2021/06/08 07:58:03;;;;;;;11.27;9.07;;;;;;;;;;5160493;27;20463;-79
2021/06/08 08:00:31;;;;;;;10.30;8.40;;;;;;;;;;5148393;27;20440;-79
2021/06/08 08:03:24;;;;;;;8.90;8.00;;;;;;;;;;5128249;27;20480;-80
2021/06/08 08:05:47;;;;;;;10.60;9.60;;;;;;;;;;5146270;27;20499;-79
2021/06/08 08:08:19;;;;;;;9.67;8.53;;;;;;;;;;5148355;27;20469;-79
2021/06/08 08:10:46;;;;;;;10.97;9.40;;;;;;;;;;5156305;27;20454;-79
2021/06/08 08:13:22;;;;;;;9.43;8.30;;;;;;;;;;5146444;27;20464;-80
2021/06/08 08:15:50;;;;;;;13.33;8.83;;;;;;;;;;5165877;27;20449;-80
2021/06/08 08:18:21;;;;;;;12.53;9.70;;;;;;;;;;5169005;27;20470;-77
2021/06/08 08:20:53;;;;;;;11.23;9.27;;;;;;;;;;5181885;27;20599;-77
2021/06/08 08:23:24;;;;;;;12.60;9.43;;;;;;;;;;5179703;27;20522;-80
2021/06/08 08:25:51;;;;;;;9.90;8.80;;;;;;;;;;5165466;27;20465;-80
2021/06/08 08:28:19;;;;;;;12.37;9.20;;;;;;;;;;5165825;27;20580;-79
2021/06/08 08:30:46;;;;;;;13.53;10.90;;;;;;;;;;5167092;27;20623;-80
2021/06/08 08:33:13;;;;;;;14.60;8.60;;;;;;;;;;5165809;27;20501;-78
2021/06/08 08:35:41;;;;;;;8.67;7.80;;;;;;;;;;5165608;27;20614;-79
2021/06/08 08:38:08;;;;;;;9.73;8.73;;;;;;;;;;5166953;27;20477;-78
2021/06/08 08:40:37;;;;;;;11.40;10.00;;;;;;;;;;5166402;27;20487;-78
2021/06/08 08:43:04;;;;;;;11.90;8.80;;;;;;;;;;5158193;27;20489;-81
2021/06/08 08:45:32;;;;;;;11.77;8.87;;;;;;;;;;5165945;27;20449;-79
2021/06/08 08:48:00;;;;;;;8.30;7.50;;;;;;;;;;5159110;27;20481;-79
2021/06/08 08:50:27;;;;;;;11.83;9.93;;;;;;;;;;5152567;27;20469;-78
2021/06/08 08:53:00;;;;;;;11.93;8.03;;;;;;;;;;5146729;27;20453;-79
2021/06/08 08:55:27;;;;;;;8.50;7.63;;;;;;;;;;5145515;27;20469;-79
2021/06/08 08:57:57;;;;;;;10.60;7.20;;;;;;;;;;5180315;27;20457;-79
2021/06/08 09:00:26;;;;;;;11.83;9.40;;;;;;;;;;5166409;27;20954;-80
2021/06/08 09:02:54;;;;;;;9.40;7.10;;;;;;;;;;5176682;27;20467;-80
2021/06/08 09:05:21;;;;;;;8.63;7.83;;;;;;;;;;5180199;27;20540;-80
2021/06/08 09:07:50;;;;;;;14.03;8.47;;;;;;;;;;5150099;27;20736;-78
2021/06/08 09:10:17;;;;;;;8.03;7.23;;;;;;;;;;5146461;27;20460;-79
2021/06/08 09:12:44;;;;;;;9.43;7.70;;;;;;;;;;5153600;27;20521;-81
2021/06/08 09:15:13;;;;;;;9.67;7.67;;;;;;;;;;5146762;27;20453;-80
2021/06/08 09:17:41;;;;;;;9.53;8.63;;;;;;;;;;5160891;27;20464;-81
2021/06/08 09:20:09;;;;;;;10.00;9.03;;;;;;;;;;5160615;27;20461;-81
2021/06/08 09:22:50;;;;;;;7.50;6.90;;;;;;;;;;5157705;27;20538;-82
2021/06/08 09:25:39;;;;;;;8.90;8.10;;;;;;;;;;5145066;27;20465;-82
2021/06/08 09:28:23;;;;;;;9.00;8.20;;;;;;;;;;5152185;27;20483;-82
2021/06/08 09:30:55;;;;;;;9.20;6.80;;;;;;;;;;5138126;27;20568;-80
2021/06/08 09:33:23;;;;;;;8.83;7.77;;;;;;;;;;5162261;27;20469;-81
2021/06/08 09:35:52;;;;;;;8.17;7.37;;;;;;;;;;5148220;27;20460;-80
2021/06/08 09:38:19;;;;;;;8.60;6.90;;;;;;;;;;5150012;27;21072;-81
2021/06/08 09:40:46;;;;;;;12.70;7.97;;;;;;;;;;5161041;27;20457;-80
2021/06/08 09:43:15;;;;;;;7.17;6.43;;;;;;;;;;5153759;27;20531;-81
2021/06/08 09:45:44;;;;;;;7.70;6.90;;;;;;;;;;5148662;27;20530;-80
2021/06/08 09:48:13;;;;;;;6.80;6.20;;;;;;;;;;5161631;27;20568;-81
2021/06/08 09:50:41;;;;;;;7.83;7.00;;;;;;;;;;5159620;27;20462;-81
2021/06/08 09:53:18;;;;;;;6.20;5.60;;;;;;;;;;5158935;27;20441;-79
2021/06/08 09:55:56;;;;;;;6.73;5.90;;;;;;;;;;5129766;27;20476;-78
2021/06/08 09:58:23;;;;;;;6.10;5.50;;;;;;;;;;5157596;27;20588;-81
2021/06/08 10:01:10;;;;;;;6.20;5.60;;;;;;;;;;5152405;27;20484;-80
2021/06/08 10:03:39;;;;;;;8.37;5.93;;;;;;;;;;5149789;27;20450;-80
2021/06/08 10:06:10;;;;;;;7.20;5.07;;;;;;;;;;5156889;27;20461;-83
2021/06/08 10:08:38;;;;;;;7.13;5.80;;;;;;;;;;5149811;27;20474;-81
2021/06/08 10:11:15;;;;;;;8.20;6.67;;;;;;;;;;5152908;27;20807;-82
2021/06/08 10:13:42;;;;;;;7.20;6.50;;;;;;;;;;5132278;27;20497;-82
2021/06/08 10:16:12;;;;;;;10.20;6.23;;;;;;;;;;5150254;27;20480;-80
2021/06/08 10:18:44;;;;;;;8.53;6.43;;;;;;;;;;5142253;27;20445;-80
2021/06/08 10:21:11;;;;;;;7.47;6.63;;;;;;;;;;5160603;27;20464;-80
2021/06/08 10:23:39;;;;;;;9.13;6.97;;;;;;;;;;5164203;27;20532;-80
2021/06/08 10:26:08;;;;;;;16.70;8.13;;;;;;;;;;5163017;27;20464;-80
2021/06/08 10:28:35;;;;;;;17.80;14.87;;;;;;;;;;5153832;27;20485;-81
2021/06/08 10:31:03;;;;;;;7.57;5.77;;;;;;;;;;5166520;27;20494;-79
2021/06/08 10:33:31;;;;;;;5.60;5.10;;;;;;;;;;5151737;27;20508;-81
2021/06/08 10:36:00;;;;;;;5.87;5.37;;;;;;;;;;5141565;27;20457;-80
2021/06/08 10:38:27;;;;;;;6.40;5.73;;;;;;;;;;5154439;27;20522;-81
2021/06/08 10:40:55;;;;;;;9.27;7.63;;;;;;;;;;5161853;27;20503;-81
2021/06/08 10:43:23;;;;;;;6.37;5.77;;;;;;;;;;5164377;27;20453;-80
2021/06/08 10:45:52;;;;;;;6.17;5.17;;;;;;;;;;5162584;27;20456;-81
2021/06/08 10:48:21;;;;;;;6.53;5.40;;;;;;;;;;5163369;27;20481;-81
2021/06/08 10:50:49;;;;;;;7.70;5.10;;;;;;;;;;5155700;27;20473;-79
2021/06/08 10:53:32;;;;;;;6.40;4.63;;;;;;;;;;5157283;27;20453;-79
2021/06/08 10:56:00;;;;;;;5.30;4.80;;;;;;;;;;5162576;27;20452;-79
2021/06/08 10:58:50;;;;;;;6.23;4.50;;;;;;;;;;5160283;27;20526;-80
2021/06/08 11:01:38;;;;;;;8.23;4.23;;;;;;;;;;5156468;27;20559;-82
2021/06/08 11:04:06;;;;;;;5.07;4.50;;;;;;;;;;5153049;27;20457;-79
2021/06/08 11:06:55;;;;;;;4.70;3.80;;;;;;;;;;5156982;27;20468;-81
2021/06/08 11:09:37;;;;;;;6.67;3.77;;;;;;;;;;5169260;27;20904;-80
2021/06/08 11:12:21;;;;;;;4.90;4.33;;;;;;;;;;5148271;27;20497;-80
2021/06/08 11:14:59;;;;;;;3.67;3.17;;;;;;;;;;5151323;27;20465;-80
2021/06/08 11:17:33;;;;;;;4.47;3.87;;;;;;;;;;5163433;27;20445;-79
2021/06/08 11:20:01;;;;;;;4.07;3.67;;;;;;;;;;5169124;27;20524;-80
2021/06/08 11:22:46;;;;;;;4.10;3.70;;;;;;;;;;5157169;27;20445;-78
2021/06/08 11:28:11;;;;;;;5.33;3.93;;;;;;;;;;5164414;27;20267;-71
2021/06/08 11:30:48;;;;;;;5.30;3.57;;;;;;;;;;5152596;27;20527;-72
2021/06/08 11:33:32;;;;;;;6.23;3.70;;;;;;;;;;5154042;27;20459;-72
2021/06/08 11:36:36;;;;;;;4.83;3.80;;;;;;;;;;5153503;27;20908;-71
2021/06/08 11:39:37;;;;;;;4.00;3.60;;;;;;;;;;5174386;27;20477;-71
2021/06/08 11:42:08;;;;;;;3.93;3.53;;;;;;;;;;5070275;28;20478;-71
2021/06/08 11:44:41;;;;;;;6.03;4.23;;;;;;;;;;5070820;28;20447;-71
2021/06/08 11:47:08;;;;;;;4.73;3.57;;;;;;;;;;5111428;27;20485;-71
2021/06/08 11:49:36;;;;;;;6.30;4.13;;;;;;;;;;5151146;27;20559;-70
2021/06/08 11:52:11;;;;;;;5.30;3.80;;;;;;;;;;5152555;27;20548;-72
2021/06/08 11:54:49;;;;;;;5.90;4.23;;;;;;;;;;5152822;27;20491;-71
2021/06/08 11:57:35;;;;;;;6.20;3.47;;;;;;;;;;5151572;27;20507;-70
2021/06/08 12:00:05;;;;;;;5.00;3.83;;;;;;;;;;5152237;27;20457;-72
2021/06/08 12:02:39;;;;;;;6.00;4.60;;;;;;;;;;5141605;27;20458;-70
2021/06/08 12:05:13;;;;;;;6.10;5.00;;;;;;;;;;5131639;27;20526;-72
2021/06/08 12:07:47;;;;;;;5.40;4.57;;;;;;;;;;5149755;27;20477;-72
2021/06/08 12:10:16;;;;;;;6.47;5.00;;;;;;;;;;5152682;27;20494;-71
2021/06/08 12:12:48;;;;;;;5.77;4.37;;;;;;;;;;5153126;27;20575;-71
2021/06/08 12:15:24;;;;;;;4.00;3.10;;;;;;;;;;5151432;27;20548;-71
2021/06/08 12:18:02;;;;;;;5.17;4.00;;;;;;;;;;5152772;27;20448;-71
2021/06/08 12:20:38;;;;;;;3.90;3.23;;;;;;;;;;5152332;27;20638;-72
2021/06/08 12:23:06;;;;;;;4.40;3.23;;;;;;;;;;5166374;27;20436;-71
2021/06/08 12:25:36;;;;;;;6.40;3.83;;;;;;;;;;5173994;27;20868;-71
2021/06/08 12:28:20;;;;;;;4.70;3.60;;;;;;;;;;5171073;27;20487;-71
2021/06/08 12:30:53;;;;;;;5.00;4.13;;;;;;;;;;5153647;27;20433;-71
2021/06/08 12:33:22;;;;;;;5.40;3.30;;;;;;;;;;5152246;27;20461;-71
2021/06/08 12:35:49;;;;;;;4.33;3.93;;;;;;;;;;5153668;27;20494;-71
2021/06/08 12:38:20;;;;;;;5.73;3.23;;;;;;;;;;5145439;27;20851;-72
2021/06/08 12:40:57;;;;;;;4.30;3.70;;;;;;;;;;5139203;27;20480;-71
2021/06/08 12:43:25;;;;;;;4.33;3.50;;;;;;;;;;5152977;27;20456;-71
2021/06/08 12:46:04;;;;;;;5.40;4.33;;;;;;;;;;5158273;27;20445;-72
2021/06/08 12:48:48;;;;;;;4.63;3.70;;;;;;;;;;5160966;27;20463;-72
2021/06/08 12:51:16;;;;;;;4.07;2.83;;;;;;;;;;5154575;27;20450;-70
2021/06/08 12:53:45;;;;;;;3.90;2.70;;;;;;;;;;5146488;27;21151;-71
2021/06/08 12:56:30;;;;;;;4.90;3.00;;;;;;;;;;5128718;27;20761;-71
2021/06/08 12:59:11;;;;;;;5.17;3.40;;;;;;;;;;5118913;27;20527;-71
2021/06/08 13:02:15;;;;;;;4.43;3.20;;;;;;;;;;5129497;27;20518;-71
2021/06/08 13:04:45;;;;;;;4.17;2.73;;;;;;;;;;5138616;27;20736;-72
2021/06/08 13:07:17;;;;;;;5.87;3.00;;;;;;;;;;5134570;27;20482;-71
2021/06/08 13:09:44;;;;;;;4.80;3.00;;;;;;;;;;5134062;27;20445;-71
2021/06/08 13:12:17;;;;;;;5.33;2.83;;;;;;;;;;5137862;27;20462;-71
2021/06/08 13:14:45;;;;;;;4.10;2.87;;;;;;;;;;5143926;27;20454;-71
2021/06/08 13:17:38;;;;;;;5.63;3.20;;;;;;;;;;5131482;27;20507;-72
2021/06/08 13:20:37;;;;;;;3.77;3.43;;;;;;;;;;5137142;27;20470;-72
2021/06/08 13:23:31;;;;;;;4.60;3.30;;;;;;;;;;5135190;27;20446;-72
2021/06/08 13:26:08;;;;;;;7.03;5.23;;;;;;;;;;5134112;27;20480;-71
2021/06/08 13:31:53;;;;;;;7.33;3.40;;;;;;;;;;5127688;27;20777;-71
2021/06/08 13:34:32;;;;;;;6.50;5.17;;;;;;;;;;5138883;27;20438;-71
2021/06/08 13:37:05;;;;;;;4.97;3.37;;;;;;;;;;5136694;27;20537;-70
2021/06/08 13:39:41;;;;;;;8.97;5.30;;;;;;;;;;5136241;27;20442;-71
2021/06/08 13:45:19;;;;;;;6.10;2.80;;;;;;;;;;5137856;27;20446;-70
2021/06/08 13:47:47;;;;;;;5.00;2.77;;;;;;;;;;5140198;27;20477;-70
2021/06/08 13:50:22;;;;;;;5.63;4.07;;;;;;;;;;5126405;27;20500;-70
2021/06/08 13:53:02;;;;;;;3.97;2.87;;;;;;;;;;5137512;27;20453;-72
2021/06/08 13:55:46;;;;;;;5.13;2.87;;;;;;;;;;5137280;27;20438;-70
2021/06/08 14:01:27;;;;;;;4.50;2.73;;;;;;;;;;5131663;27;20429;-72
2021/06/08 14:04:03;;;;;;;3.80;2.73;;;;;;;;;;5136470;27;20448;-71
2021/06/08 14:06:32;;;;;;;4.07;2.80;;;;;;;;;;5143478;27;20503;-72
2021/06/08 14:09:18;;;;;;;7.03;2.67;;;;;;;;;;5135077;27;20480;-71
2021/06/08 14:11:49;;;;;;;4.57;3.10;;;;;;;;;;5134900;27;20511;-72
2021/06/08 14:14:17;;;;;;;4.40;2.77;;;;;;;;;;5137270;27;20473;-71
2021/06/08 14:16:50;;;;;;;5.60;3.03;;;;;;;;;;5134739;27;20462;-71
2021/06/08 14:19:20;;;;;;;4.83;2.87;;;;;;;;;;5119268;27;20478;-71
2021/06/08 14:21:48;;;;;;;5.40;3.10;;;;;;;;;;5155049;27;20457;-71
2021/06/08 14:24:19;;;;;;;4.17;2.80;;;;;;;;;;5135961;27;20458;-71
2021/06/08 14:26:48;;;;;;;3.83;2.73;;;;;;;;;;5135631;27;20785;-70
2021/06/08 14:29:22;;;;;;;7.10;3.43;;;;;;;;;;5155209;27;20982;-70
2021/06/08 14:31:53;;;;;;;4.93;3.20;;;;;;;;;;5154725;27;20469;-70
2021/06/08 14:34:29;;;;;;;7.43;3.20;;;;;;;;;;5135589;27;20454;-70
2021/06/08 14:37:00;;;;;;;6.30;3.17;;;;;;;;;;5149490;27;20441;-72
2021/06/08 14:39:31;;;;;;;4.10;2.70;;;;;;;;;;5135497;27;20460;-71
2021/06/08 14:42:03;;;;;;;4.57;2.60;;;;;;;;;;5136986;27;20461;-72
2021/06/08 14:44:33;;;;;;;6.13;3.33;;;;;;;;;;5156927;27;20475;-73
2021/06/08 14:47:01;;;;;;;4.20;2.80;;;;;;;;;;5146829;27;20923;-72
2021/06/08 14:49:30;;;;;;;6.43;3.27;;;;;;;;;;5134699;27;20556;-70
2021/06/08 14:52:11;;;;;;;4.40;2.97;;;;;;;;;;5135836;27;20449;-70
2021/06/08 14:54:40;;;;;;;5.77;3.03;;;;;;;;;;5136837;27;20717;-70
2021/06/08 14:57:09;;;;;;;4.70;2.93;;;;;;;;;;5136161;27;20434;-70
2021/06/08 14:59:36;;;;;;;3.90;2.63;;;;;;;;;;5136798;27;20461;-72
2021/06/08 15:02:04;;;;;;;5.80;3.47;;;;;;;;;;5135394;27;20481;-73